createdAt,value
2023-04-19T00:01:58.958Z,8.35
2023-04-19T00:07:00.852Z,8.26
2023-04-19T00:12:04.182Z,8.07
2023-04-19T00:17:06.090Z,7.91
2023-04-19T00:22:08.019Z,7.82
2023-04-19T00:27:11.199Z,7.71
2023-04-19T00:32:16.079Z,7.58
2023-04-19T00:37:17.999Z,7.47
2023-04-19T00:42:21.642Z,7.39
2023-04-19T00:47:23.510Z,7.32
2023-04-19T00:52:26.382Z,7.24
2023-04-19T00:57:29.883Z,7.17
2023-04-19T01:02:32.001Z,7.06
2023-04-19T01:07:34.048Z,7.01
2023-04-19T01:12:37.275Z,6.92
2023-04-19T01:17:39.208Z,6.84
2023-04-19T01:22:42.344Z,6.82
2023-04-19T01:27:44.509Z,6.74
2023-04-19T01:32:46.406Z,6.63
2023-04-19T01:37:50.682Z,6.54
2023-04-19T01:42:52.585Z,6.46
2023-04-19T01:47:54.433Z,6.41
2023-04-19T01:52:57.694Z,6.35
2023-04-19T01:57:59.418Z,6.27
2023-04-19T02:03:02.223Z,6.19
2023-04-19T02:08:05.703Z,6.18
2023-04-19T02:13:07.537Z,6.11
2023-04-19T02:18:09.767Z,6.07
2023-04-19T02:23:13.294Z,6.03
2023-04-19T02:28:15.238Z,5.94
2023-04-19T02:33:17.472Z,5.87
2023-04-19T02:38:20.643Z,5.80
2023-04-19T02:43:22.357Z,5.78
2023-04-19T02:48:24.171Z,5.67
2023-04-19T02:53:27.335Z,5.65
2023-04-19T02:58:29.373Z,5.61
2023-04-19T03:03:39.075Z,5.56
2023-04-19T03:08:42.377Z,5.52
2023-04-19T03:13:44.264Z,5.50
2023-04-19T03:18:49.455Z,5.51
2023-04-19T03:23:56.008Z,5.46
2023-04-19T03:28:59.649Z,5.48
2023-04-19T03:34:22.785Z,5.49
2023-04-19T03:39:26.249Z,5.37
2023-04-19T03:44:33.971Z,5.34
2023-04-19T03:49:38.369Z,5.33
2023-04-19T03:54:42.738Z,5.29
2023-04-19T03:59:55.204Z,5.30
2023-04-19T04:04:57.202Z,5.31
2023-04-19T04:10:00.926Z,5.34
2023-04-19T04:15:04.173Z,5.29
2023-04-19T04:20:08.886Z,5.23
2023-04-19T04:25:13.389Z,5.25
2023-04-19T04:30:15.294Z,5.30
2023-04-19T04:35:17.623Z,5.34
2023-04-19T04:40:30.606Z,5.36
2023-04-19T04:45:32.649Z,5.44
2023-04-19T04:50:36.181Z,5.54
2023-04-19T04:55:39.487Z,5.66
2023-04-19T05:00:41.271Z,5.83
2023-04-19T05:05:45.367Z,5.98
2023-04-19T05:10:48.597Z,6.10
2023-04-19T05:15:50.510Z,6.18
2023-04-19T05:20:52.394Z,6.30
2023-04-19T05:25:58.977Z,6.37
2023-04-19T05:31:02.739Z,6.39
2023-04-19T05:36:09.646Z,6.46
2023-04-19T05:41:12.938Z,6.49
2023-04-19T05:46:14.736Z,6.62
2023-04-19T05:51:18.828Z,6.78
2023-04-19T05:56:42.672Z,7.04
2023-04-19T06:01:44.747Z,7.29
2023-04-19T06:06:47.204Z,7.63
2023-04-19T06:11:54.591Z,9.39
2023-04-19T06:16:56.946Z,11.64
2023-04-19T06:21:58.779Z,13.00
2023-04-19T06:27:02.230Z,16.04
2023-04-19T06:32:04.141Z,14.70
2023-04-19T06:37:05.819Z,13.39
2023-04-19T06:42:08.866Z,11.72
2023-04-19T06:47:10.865Z,11.63
2023-04-19T06:52:12.523Z,11.67
2023-04-19T06:57:15.497Z,12.47
2023-04-19T07:02:17.321Z,15.58
2023-04-19T07:07:19.116Z,17.13
2023-04-19T07:12:22.137Z,17.83
2023-04-19T07:17:23.973Z,16.21
2023-04-19T07:22:25.728Z,15.46
2023-04-19T07:27:28.820Z,15.56
2023-04-19T07:32:31.327Z,16.19
2023-04-19T07:37:33.084Z,15.94
2023-04-19T07:42:36.160Z,17.06
2023-04-19T07:47:37.941Z,19.57
2023-04-19T07:52:39.788Z,22.16
2023-04-19T07:57:47.965Z,25.85
2023-04-19T08:02:49.859Z,27.59
2023-04-19T08:07:51.928Z,28.70
2023-04-19T08:13:05.226Z,30.04
2023-04-19T08:18:08.182Z,30.45
2023-04-19T08:23:21.505Z,30.48
2023-04-19T08:28:29.004Z,28.83
2023-04-19T08:33:30.740Z,30.73
2023-04-19T08:38:32.438Z,30.90
2023-04-19T08:43:36.808Z,30.93
2023-04-19T08:48:38.628Z,31.12
2023-04-19T08:53:40.381Z,30.18
2023-04-19T08:58:58.026Z,30.24
2023-04-19T09:04:17.156Z,31.43
2023-04-19T09:14:32.393Z,31.54
2023-04-19T09:19:45.269Z,31.74
2023-04-19T09:25:27.742Z,32.06
2023-04-19T09:30:20.811Z,32.51
2023-04-19T09:35:39.843Z,30.37
2023-04-19T09:40:42.343Z,30.18
2023-04-19T09:45:46.287Z,29.16
2023-04-19T09:50:59.007Z,30.26
2023-04-19T09:56:03.958Z,31.95
2023-04-19T10:01:14.921Z,32.05
2023-04-19T10:11:23.557Z,30.79
2023-04-19T10:16:27.082Z,31.99
2023-04-19T10:21:28.904Z,30.51
2023-04-19T10:26:30.650Z,31.16
2023-04-19T10:31:33.754Z,30.97
2023-04-19T10:36:35.595Z,31.16
2023-04-19T10:41:59.491Z,31.62
2023-04-19T10:47:02.711Z,32.07
2023-04-19T10:52:04.456Z,33.01
2023-04-19T10:57:06.568Z,32.83
2023-04-19T11:02:32.459Z,32.29
2023-04-19T11:07:40.184Z,31.21
2023-04-19T11:12:42.724Z,26.91
2023-04-19T11:17:46.150Z,22.87
2023-04-19T11:22:48.073Z,20.68
2023-04-19T11:27:52.061Z,19.60
2023-04-19T11:32:55.735Z,18.94
2023-04-19T11:37:58.577Z,18.75
2023-04-19T11:43:02.436Z,18.20
2023-04-19T11:48:07.232Z,17.69
2023-04-19T11:53:13.848Z,17.11
2023-04-19T11:58:25.752Z,17.68
2023-04-19T12:03:29.016Z,17.97
2023-04-19T12:08:32.272Z,17.90
2023-04-19T12:13:34.082Z,17.90
2023-04-19T12:18:45.097Z,17.97
2023-04-19T12:23:46.838Z,17.46
2023-04-19T12:28:48.526Z,16.88
2023-04-19T12:33:51.556Z,16.56
2023-04-19T12:38:53.339Z,16.63
2023-04-19T12:43:55.542Z,16.49
2023-04-19T12:48:58.598Z,17.23
2023-04-19T12:54:00.594Z,17.39
2023-04-19T12:59:02.344Z,16.73
2023-04-19T13:04:05.732Z,17.21
2023-04-19T13:09:14.204Z,17.20
2023-04-19T13:14:16.964Z,16.90
2023-04-19T13:19:20.402Z,16.25
2023-04-19T13:24:22.119Z,16.46
2023-04-19T13:29:23.885Z,16.60
2023-04-19T13:34:26.970Z,16.58
2023-04-19T13:39:28.678Z,16.62
2023-04-19T13:44:30.707Z,16.33
2023-04-19T13:49:33.771Z,15.64
2023-04-19T13:54:35.571Z,15.53
2023-04-19T13:59:37.714Z,15.75
2023-04-19T14:04:40.787Z,15.70
2023-04-19T14:09:42.522Z,15.45
2023-04-19T14:14:44.339Z,15.43
2023-04-19T14:19:48.562Z,15.14
2023-04-19T14:24:50.722Z,15.28
2023-04-19T14:29:52.384Z,15.52
2023-04-19T14:34:58.118Z,15.16
2023-04-19T14:39:59.819Z,15.08
2023-04-19T14:45:01.552Z,15.26
2023-04-19T14:50:05.622Z,15.06
2023-04-19T14:55:08.740Z,15.23
2023-04-19T15:00:12.168Z,15.29
2023-04-19T15:05:15.894Z,15.38
2023-04-19T15:10:18.115Z,14.94
2023-04-19T15:15:19.870Z,14.90
2023-04-19T15:20:22.954Z,14.81
2023-04-19T15:25:25.960Z,14.96
2023-04-19T15:30:27.694Z,15.02
2023-04-19T15:35:32.078Z,14.93
2023-04-19T15:40:33.812Z,14.75
2023-04-19T15:45:35.957Z,14.65
2023-04-19T15:50:39.669Z,14.57
2023-04-19T15:55:42.224Z,14.34
2023-04-19T16:00:44.611Z,14.20
2023-04-19T16:05:51.470Z,13.94
2023-04-19T16:10:53.418Z,13.93
2023-04-19T16:15:55.520Z,14.04
2023-04-19T16:20:58.587Z,14.00
2023-04-19T16:26:00.326Z,13.86
2023-04-19T16:31:02.118Z,13.92
2023-04-19T16:36:06.012Z,13.97
2023-04-19T16:41:07.806Z,13.75
2023-04-19T16:46:10.855Z,13.51
2023-04-19T16:51:14.045Z,13.37
2023-04-19T16:56:16.703Z,13.28
2023-04-19T17:01:18.900Z,13.23
2023-04-19T17:06:22.315Z,13.24
2023-04-19T17:11:24.202Z,13.11
2023-04-19T17:16:26.192Z,12.94
2023-04-19T17:21:29.557Z,12.90
2023-04-19T17:26:31.435Z,12.79
2023-04-19T17:31:33.625Z,12.57
2023-04-19T17:36:42.057Z,12.39
2023-04-19T17:41:44.884Z,12.17
2023-04-19T17:46:46.898Z,12.04
2023-04-19T17:51:50.270Z,11.85
2023-04-19T17:56:52.586Z,11.75
2023-04-19T18:01:54.436Z,11.67
2023-04-19T18:06:57.617Z,11.55
2023-04-19T18:12:01.510Z,11.43
2023-04-19T18:17:05.493Z,11.32
2023-04-19T18:22:08.664Z,11.33
2023-04-19T18:27:10.732Z,11.26
2023-04-19T18:32:12.614Z,11.05
2023-04-19T18:37:16.263Z,10.89
2023-04-19T18:42:18.046Z,10.74
2023-04-19T18:47:20.018Z,10.72
2023-04-19T18:52:23.207Z,10.53
2023-04-19T18:57:27.391Z,10.40
2023-04-19T19:02:30.877Z,10.26
2023-04-19T19:07:36.922Z,10.07
2023-04-19T19:12:39.633Z,9.92
2023-04-19T19:17:43.602Z,9.82
2023-04-19T19:22:47.024Z,9.64
2023-04-19T19:28:06.299Z,9.71
2023-04-19T19:33:09.992Z,9.71
2023-04-19T19:38:13.238Z,9.81
2023-04-19T19:43:15.254Z,9.81
2023-04-19T19:48:17.619Z,9.40
2023-04-19T19:53:21.110Z,9.17
2023-04-19T19:58:46.396Z,8.94
2023-04-19T20:03:45.204Z,8.87
2023-04-19T20:08:49.984Z,8.92
2023-04-19T20:13:51.991Z,8.93
2023-04-19T20:18:54.622Z,9.03
2023-04-19T20:23:57.859Z,9.06
2023-04-19T20:29:00.391Z,9.10
2023-04-19T20:34:02.383Z,9.17
2023-04-19T20:39:19.884Z,9.19
2023-04-19T20:44:22.907Z,9.12
2023-04-19T20:49:24.901Z,9.15
2023-04-19T20:54:28.104Z,9.06
2023-04-19T20:59:30.098Z,9.05
2023-04-19T21:04:32.806Z,9.04
2023-04-19T21:09:37.051Z,8.97
2023-04-19T21:14:38.808Z,8.93
2023-04-19T21:19:41.829Z,8.93
2023-04-19T21:24:45.317Z,8.87
2023-04-19T21:29:47.393Z,8.93
2023-04-19T21:34:49.260Z,8.89
2023-04-19T21:39:52.935Z,8.82
2023-04-19T21:44:54.720Z,8.67
2023-04-19T21:49:56.590Z,8.38
2023-04-19T21:54:59.718Z,8.32
2023-04-19T22:00:01.514Z,8.11
2023-04-19T22:05:07.089Z,7.99
2023-04-19T22:10:12.190Z,7.97
2023-04-19T22:15:14.179Z,7.87
2023-04-19T22:20:16.145Z,7.64
2023-04-19T22:25:19.895Z,7.43
2023-04-19T22:30:21.797Z,7.20
2023-04-19T22:35:23.703Z,7.26
2023-04-19T22:40:26.777Z,7.22
2023-04-19T22:45:28.596Z,7.18
2023-04-19T22:50:31.046Z,7.03
2023-04-19T22:55:34.267Z,7.06
2023-04-19T23:00:36.154Z,6.99
2023-04-19T23:05:37.987Z,6.99
2023-04-19T23:10:42.426Z,6.94
2023-04-19T23:15:44.408Z,6.97
2023-04-19T23:20:46.588Z,6.88
2023-04-19T23:25:51.126Z,6.83
2023-04-19T23:30:52.976Z,6.76
2023-04-19T23:35:55.014Z,6.83
2023-04-19T23:40:58.131Z,6.91
2023-04-19T23:45:59.958Z,6.95
2023-04-19T23:51:02.029Z,6.98
2023-04-19T23:56:06.541Z,6.96
